createdAt,value
2019-02-05T13:07:37.149Z,5.60
2019-02-05T13:11:01.624Z,5.60
2019-02-05T13:14:19.153Z,5.50
2019-02-05T13:17:43.848Z,5.50
2019-02-05T13:20:49.282Z,5.40
2019-02-05T13:24:16.620Z,5.40
2019-02-05T13:27:32.872Z,5.40
2019-02-05T13:31:07.758Z,5.20
2019-02-05T13:34:15.865Z,5.20
2019-02-05T13:37:40.396Z,5.20
2019-02-05T13:40:59.447Z,5.00
2019-02-05T13:44:04.993Z,5.20
2019-02-05T13:47:29.417Z,5.20
2019-02-05T13:50:53.893Z,4.90
2019-02-05T13:54:18.380Z,5.20
2019-02-05T13:57:35.977Z,5.10
2019-02-05T14:01:00.407Z,5.10
2019-02-05T14:04:17.566Z,5.10
2019-02-05T14:07:42.062Z,5.10
2019-02-05T14:10:48.278Z,5.10
2019-02-05T14:14:12.737Z,5.10
2019-02-05T14:17:37.209Z,5.00
2019-02-05T14:20:54.634Z,5.00
2019-02-05T14:24:19.227Z,4.90
2019-02-05T14:27:37.105Z,4.90
2019-02-05T14:30:55.396Z,4.90
2019-02-05T14:34:00.814Z,4.60
2019-02-05T14:37:06.716Z,5.00
2019-02-05T14:40:31.148Z,5.00
2019-02-05T14:43:48.229Z,5.10
2019-02-05T14:47:05.638Z,5.10
2019-02-05T14:50:31.364Z,5.10
2019-02-05T14:53:49.062Z,5.10
2019-02-05T14:57:13.880Z,5.10
2019-02-05T15:00:33.889Z,5.00
2019-02-05T15:03:58.341Z,5.00
2019-02-05T15:07:15.892Z,5.00
2019-02-05T15:10:40.659Z,5.10
2019-02-05T15:13:58.268Z,5.10
2019-02-05T15:17:03.657Z,5.00
2019-02-05T15:20:47.972Z,5.00
2019-02-05T15:24:05.375Z,5.00
2019-02-05T15:27:29.849Z,5.00
2019-02-05T15:30:47.636Z,4.60
2019-02-05T15:34:30.947Z,4.80
2019-02-05T15:37:47.804Z,4.90
2019-02-05T15:40:53.232Z,4.80
2019-02-05T15:44:18.165Z,4.80
2019-02-05T15:47:43.002Z,4.70
2019-02-05T15:50:59.837Z,4.70
2019-02-05T15:54:05.702Z,4.60
2019-02-05T15:57:30.565Z,4.60
2019-02-05T16:00:47.259Z,4.50
2019-02-05T16:04:11.835Z,4.50
2019-02-05T16:07:36.999Z,4.40
2019-02-05T16:11:01.455Z,4.40
2019-02-05T16:14:06.868Z,4.30
2019-02-05T16:17:31.317Z,4.30
2019-02-05T16:20:55.821Z,4.20
2019-02-05T16:24:13.564Z,4.20
2019-02-05T16:27:38.685Z,4.10
2019-02-05T16:30:56.490Z,4.20
2019-02-05T16:34:20.946Z,4.60
2019-02-05T16:37:37.729Z,4.10
2019-02-05T16:41:02.204Z,4.10
2019-02-05T16:44:19.752Z,3.90
2019-02-05T16:47:44.254Z,4.10
2019-02-05T16:51:01.633Z,4.10
2019-02-05T16:54:26.134Z,4.10
2019-02-05T16:57:42.943Z,4.00
2019-02-05T17:01:07.392Z,4.00
2019-02-05T17:04:26.083Z,4.00
2019-02-05T17:07:50.548Z,3.90
2019-02-05T17:11:07.417Z,4.00
2019-02-05T17:18:00.709Z,3.90
2019-02-05T17:21:18.125Z,3.90
2019-02-05T17:24:42.557Z,3.90
2019-02-05T17:27:48.057Z,3.90
2019-02-05T17:31:12.512Z,3.80
2019-02-05T17:34:36.993Z,3.80
2019-02-05T17:37:53.786Z,3.40
2019-02-05T17:41:01.864Z,3.40
2019-02-05T17:44:26.412Z,3.70
2019-02-05T17:47:51.691Z,4.20
2019-02-05T17:50:57.097Z,3.70
2019-02-05T17:54:21.679Z,3.70
2019-02-05T17:57:46.312Z,3.70
2019-02-05T18:01:30.264Z,3.60
2019-02-05T18:04:47.182Z,3.60
2019-02-05T18:08:11.959Z,3.60
2019-02-05T18:11:29.369Z,4.00
2019-02-05T18:14:53.813Z,3.50
2019-02-05T18:18:18.591Z,3.60
2019-02-05T18:25:07.829Z,3.60
2019-02-05T18:31:55.323Z,3.60
2019-02-05T18:35:19.998Z,3.60
2019-02-05T18:38:39.491Z,3.60
2019-02-05T18:42:03.987Z,3.60
2019-02-05T18:45:20.924Z,3.60
2019-02-05T18:48:45.739Z,3.60
2019-02-05T18:52:02.836Z,3.60
2019-02-05T18:55:28.646Z,3.60
2019-02-05T18:58:45.755Z,3.60
2019-02-05T19:02:10.212Z,3.60
2019-02-05T19:05:27.209Z,3.60
2019-02-05T19:08:54.880Z,3.20
2019-02-05T19:12:12.058Z,3.30
2019-02-05T19:15:37.417Z,3.50
2019-02-05T19:18:56.252Z,3.60
2019-02-05T19:22:14.043Z,3.50
2019-02-05T19:25:57.505Z,3.60
2019-02-05T19:29:18.941Z,3.50
2019-02-05T19:32:42.366Z,3.50
2019-02-05T19:35:48.514Z,3.50
2019-02-05T19:39:13.305Z,3.60
2019-02-05T19:42:30.760Z,3.50
2019-02-05T19:46:06.985Z,3.60
2019-02-05T19:49:43.434Z,3.70
2019-02-05T19:53:07.905Z,3.70
2019-02-05T19:56:25.179Z,3.70
2019-02-05T19:59:42.200Z,3.70
2019-02-05T20:03:38.008Z,3.80
2019-02-05T20:06:47.827Z,3.80
2019-02-05T20:10:12.418Z,3.80
2019-02-05T20:13:39.597Z,3.90
2019-02-05T20:16:55.853Z,3.80
2019-02-05T20:20:14.691Z,3.70
2019-02-05T20:23:39.137Z,3.90
2019-02-05T20:26:56.896Z,3.90
2019-02-05T20:30:21.490Z,4.00
2019-02-05T20:33:49.434Z,4.00
2019-02-05T20:37:04.332Z,4.00
2019-02-05T20:40:21.843Z,4.00
2019-02-05T20:43:46.272Z,4.00
2019-02-05T20:47:03.613Z,4.00
2019-02-05T20:50:28.135Z,4.00
2019-02-05T20:53:46.777Z,4.00
2019-02-05T20:57:11.203Z,4.00
2019-02-05T21:00:19.825Z,4.00
2019-02-05T21:04:03.178Z,3.90
2019-02-05T21:07:20.756Z,3.90
2019-02-05T21:10:38.119Z,3.90
2019-02-05T21:14:02.555Z,3.80
2019-02-05T21:17:20.042Z,3.60
2019-02-05T21:20:44.518Z,3.80
2019-02-05T21:24:02.125Z,3.50
2019-02-05T21:30:55.967Z,3.60
2019-02-05T21:34:20.823Z,3.50
2019-02-05T21:37:39.866Z,3.50
2019-02-05T21:41:04.304Z,3.50
2019-02-05T21:44:22.265Z,3.50
2019-02-05T21:47:39.979Z,3.40
2019-02-05T21:51:05.107Z,3.40
2019-02-05T21:54:29.590Z,3.40
2019-02-05T21:57:46.854Z,3.40
2019-02-05T22:01:14.287Z,3.40
2019-02-05T22:04:30.514Z,3.40
2019-02-05T22:07:48.301Z,3.40
2019-02-05T22:11:13.565Z,3.40
2019-02-05T22:14:30.797Z,3.00
2019-02-05T22:17:36.498Z,3.00
2019-02-05T22:21:01.504Z,3.40
2019-02-05T22:24:18.811Z,3.40
2019-02-05T22:27:43.253Z,3.50
2019-02-05T22:31:01.063Z,3.40
2019-02-05T22:34:25.546Z,3.30
2019-02-05T22:37:43.326Z,3.30
2019-02-05T22:41:08.128Z,3.30
2019-02-05T22:44:24.857Z,3.30
2019-02-05T22:47:42.421Z,3.20
2019-02-05T22:51:07.596Z,3.30
2019-02-05T22:54:24.613Z,2.80
2019-02-05T22:57:49.825Z,3.10
2019-02-05T23:01:28.659Z,3.00
2019-02-05T23:05:07.438Z,3.30
2019-02-05T23:08:31.878Z,3.30
2019-02-05T23:12:10.897Z,3.30
2019-02-05T23:19:18.769Z,3.30
2019-02-05T23:22:43.597Z,3.30
2019-02-05T23:26:00.882Z,3.30
2019-02-05T23:29:25.333Z,3.30
2019-02-05T23:32:42.128Z,3.30
2019-02-05T23:36:07.060Z,3.40
2019-02-05T23:39:24.592Z,3.40
2019-02-05T23:42:49.417Z,3.40
2019-02-05T23:46:07.141Z,3.40
2019-02-05T23:49:31.585Z,3.40
2019-02-05T23:52:49.098Z,3.40
2019-02-05T23:56:06.387Z,3.40
2019-02-05T23:59:30.808Z,3.20
